sensor_id;sensor_type;location;lat;lon;timestamp;temperature;humidity
61392;DHT22;47261;52.892;5.738;2022-07-29T00:01:47;15.60;78.90
61392;DHT22;47261;52.892;5.738;2022-07-29T00:04:12;15.60;79.10
61392;DHT22;47261;52.892;5.738;2022-07-29T00:06:38;15.60;79.10
61392;DHT22;47261;52.892;5.738;2022-07-29T00:09:03;15.60;79.10
61392;DHT22;47261;52.892;5.738;2022-07-29T00:11:29;15.60;79.20
61392;DHT22;47261;52.892;5.738;2022-07-29T00:13:55;15.60;79.30
61392;DHT22;47261;52.892;5.738;2022-07-29T00:16:20;15.60;79.30
61392;DHT22;47261;52.892;5.738;2022-07-29T00:18:46;15.60;79.30
61392;DHT22;47261;52.892;5.738;2022-07-29T00:21:11;15.60;79.30
61392;DHT22;47261;52.892;5.738;2022-07-29T00:23:37;15.60;79.40
61392;DHT22;47261;52.892;5.738;2022-07-29T00:26:02;15.60;79.40
61392;DHT22;47261;52.892;5.738;2022-07-29T00:28:28;15.60;79.50
61392;DHT22;47261;52.892;5.738;2022-07-29T00:30:54;15.60;79.50
61392;DHT22;47261;52.892;5.738;2022-07-29T00:33:19;15.60;79.60
61392;DHT22;47261;52.892;5.738;2022-07-29T00:35:45;15.60;79.70
61392;DHT22;47261;52.892;5.738;2022-07-29T00:38:12;15.60;79.70
61392;DHT22;47261;52.892;5.738;2022-07-29T00:40:38;15.60;79.70
61392;DHT22;47261;52.892;5.738;2022-07-29T00:43:03;15.60;79.70
61392;DHT22;47261;52.892;5.738;2022-07-29T00:45:29;15.60;79.70
61392;DHT22;47261;52.892;5.738;2022-07-29T00:47:55;15.60;79.70
61392;DHT22;47261;52.892;5.738;2022-07-29T00:50:21;15.60;79.80
61392;DHT22;47261;52.892;5.738;2022-07-29T00:52:46;15.60;79.80
61392;DHT22;47261;52.892;5.738;2022-07-29T00:55:13;15.60;79.80
61392;DHT22;47261;52.892;5.738;2022-07-29T00:57:40;15.60;79.80
61392;DHT22;47261;52.892;5.738;2022-07-29T01:00:07;15.50;79.80
61392;DHT22;47261;52.892;5.738;2022-07-29T01:02:33;15.50;79.90
61392;DHT22;47261;52.892;5.738;2022-07-29T01:04:58;15.50;80.00
61392;DHT22;47261;52.892;5.738;2022-07-29T01:07:24;15.50;80.10
61392;DHT22;47261;52.892;5.738;2022-07-29T01:09:50;15.40;80.10
61392;DHT22;47261;52.892;5.738;2022-07-29T01:12:18;15.40;80.20
61392;DHT22;47261;52.892;5.738;2022-07-29T01:14:44;15.40;80.40
61392;DHT22;47261;52.892;5.738;2022-07-29T01:17:26;15.40;80.40
61392;DHT22;47261;52.892;5.738;2022-07-29T01:25:32;15.40;80.80
61392;DHT22;47261;52.892;5.738;2022-07-29T01:28:48;15.40;81.00
61392;DHT22;47261;52.892;5.738;2022-07-29T01:30:53;15.40;81.10
61392;DHT22;47261;52.892;5.738;2022-07-29T01:33:19;15.40;81.20
61392;DHT22;47261;52.892;5.738;2022-07-29T01:36:07;15.40;81.20
61392;DHT22;47261;52.892;5.738;2022-07-29T01:38:35;15.40;81.30
61392;DHT22;47261;52.892;5.738;2022-07-29T01:41:05;15.40;81.40
61392;DHT22;47261;52.892;5.738;2022-07-29T01:43:41;15.40;81.40
61392;DHT22;47261;52.892;5.738;2022-07-29T01:46:09;15.40;81.40
61392;DHT22;47261;52.892;5.738;2022-07-29T01:48:39;15.40;81.60
61392;DHT22;47261;52.892;5.738;2022-07-29T01:51:21;15.40;81.70
61392;DHT22;47261;52.892;5.738;2022-07-29T01:53:57;15.40;81.70
61392;DHT22;47261;52.892;5.738;2022-07-29T01:56:26;15.40;81.80
61392;DHT22;47261;52.892;5.738;2022-07-29T01:58:54;15.40;81.90
61392;DHT22;47261;52.892;5.738;2022-07-29T02:01:21;15.40;82.00
61392;DHT22;47261;52.892;5.738;2022-07-29T02:03:49;15.40;82.10
61392;DHT22;47261;52.892;5.738;2022-07-29T02:06:15;15.40;82.20
61392;DHT22;47261;52.892;5.738;2022-07-29T02:08:42;15.40;82.20
61392;DHT22;47261;52.892;5.738;2022-07-29T02:11:08;15.40;82.20
61392;DHT22;47261;52.892;5.738;2022-07-29T02:13:34;15.40;82.30
61392;DHT22;47261;52.892;5.738;2022-07-29T02:16:01;15.30;82.30
61392;DHT22;47261;52.892;5.738;2022-07-29T02:18:27;15.30;82.40
61392;DHT22;47261;52.892;5.738;2022-07-29T02:20:54;15.30;82.50
61392;DHT22;47261;52.892;5.738;2022-07-29T02:23:21;15.30;82.60
61392;DHT22;47261;52.892;5.738;2022-07-29T02:25:48;15.30;82.60
61392;DHT22;47261;52.892;5.738;2022-07-29T02:28:14;15.30;82.70
61392;DHT22;47261;52.892;5.738;2022-07-29T02:30:40;15.30;82.80
61392;DHT22;47261;52.892;5.738;2022-07-29T02:33:07;15.30;82.80
61392;DHT22;47261;52.892;5.738;2022-07-29T02:35:33;15.30;82.80
61392;DHT22;47261;52.892;5.738;2022-07-29T02:37:59;15.20;82.90
61392;DHT22;47261;52.892;5.738;2022-07-29T02:40:43;15.20;83.00
61392;DHT22;47261;52.892;5.738;2022-07-29T02:43:09;15.20;83.00
61392;DHT22;47261;52.892;5.738;2022-07-29T02:45:35;15.20;83.20
61392;DHT22;47261;52.892;5.738;2022-07-29T02:48:04;15.20;83.20
61392;DHT22;47261;52.892;5.738;2022-07-29T02:50:38;15.20;83.30
61392;DHT22;47261;52.892;5.738;2022-07-29T02:53:11;15.20;83.40
61392;DHT22;47261;52.892;5.738;2022-07-29T02:58:13;15.20;83.50
61392;DHT22;47261;52.892;5.738;2022-07-29T03:00:41;15.20;83.50
61392;DHT22;47261;52.892;5.738;2022-07-29T03:03:08;15.20;83.60
61392;DHT22;47261;52.892;5.738;2022-07-29T03:05:36;15.20;83.60
61392;DHT22;47261;52.892;5.738;2022-07-29T03:08:03;15.20;83.60
61392;DHT22;47261;52.892;5.738;2022-07-29T03:10:29;15.20;83.70
61392;DHT22;47261;52.892;5.738;2022-07-29T03:12:55;15.20;83.80
61392;DHT22;47261;52.892;5.738;2022-07-29T03:15:21;15.20;83.80
61392;DHT22;47261;52.892;5.738;2022-07-29T03:17:47;15.20;83.80
61392;DHT22;47261;52.892;5.738;2022-07-29T03:20:13;15.10;83.80
61392;DHT22;47261;52.892;5.738;2022-07-29T03:22:39;15.10;83.80
61392;DHT22;47261;52.892;5.738;2022-07-29T03:25:12;15.10;83.80
61392;DHT22;47261;52.892;5.738;2022-07-29T03:27:38;15.10;83.80
61392;DHT22;47261;52.892;5.738;2022-07-29T03:30:04;15.20;83.90
61392;DHT22;47261;52.892;5.738;2022-07-29T03:32:29;15.10;83.80
61392;DHT22;47261;52.892;5.738;2022-07-29T03:34:55;15.10;83.80
61392;DHT22;47261;52.892;5.738;2022-07-29T03:37:20;15.10;83.80
61392;DHT22;47261;52.892;5.738;2022-07-29T03:39:46;15.10;83.90
61392;DHT22;47261;52.892;5.738;2022-07-29T03:42:13;15.00;83.80
61392;DHT22;47261;52.892;5.738;2022-07-29T03:44:40;15.00;84.00
61392;DHT22;47261;52.892;5.738;2022-07-29T03:47:07;15.00;83.90
61392;DHT22;47261;52.892;5.738;2022-07-29T03:49:33;15.00;83.90
61392;DHT22;47261;52.892;5.738;2022-07-29T03:52:00;15.00;84.00
61392;DHT22;47261;52.892;5.738;2022-07-29T03:54:26;14.90;84.00
61392;DHT22;47261;52.892;5.738;2022-07-29T03:56:51;14.90;84.00
61392;DHT22;47261;52.892;5.738;2022-07-29T03:59:17;14.90;84.10
61392;DHT22;47261;52.892;5.738;2022-07-29T04:01:45;14.90;84.10
61392;DHT22;47261;52.892;5.738;2022-07-29T04:04:11;14.90;84.10
61392;DHT22;47261;52.892;5.738;2022-07-29T04:06:40;14.90;84.10
61392;DHT22;47261;52.892;5.738;2022-07-29T04:09:06;14.90;84.20
61392;DHT22;47261;52.892;5.738;2022-07-29T04:11:32;14.90;84.20
61392;DHT22;47261;52.892;5.738;2022-07-29T04:13:57;14.90;84.30
61392;DHT22;47261;52.892;5.738;2022-07-29T04:16:23;14.90;84.40
61392;DHT22;47261;52.892;5.738;2022-07-29T04:18:48;14.90;84.40
61392;DHT22;47261;52.892;5.738;2022-07-29T04:21:14;14.90;84.40
61392;DHT22;47261;52.892;5.738;2022-07-29T04:23:39;14.90;84.50
61392;DHT22;47261;52.892;5.738;2022-07-29T04:26:06;14.90;84.50
61392;DHT22;47261;52.892;5.738;2022-07-29T04:28:34;14.90;84.50
61392;DHT22;47261;52.892;5.738;2022-07-29T04:31:00;15.00;84.60
61392;DHT22;47261;52.892;5.738;2022-07-29T04:33:25;15.00;84.60
61392;DHT22;47261;52.892;5.738;2022-07-29T04:35:51;15.00;84.60
61392;DHT22;47261;52.892;5.738;2022-07-29T04:38:16;15.00;84.60
61392;DHT22;47261;52.892;5.738;2022-07-29T04:40:42;15.00;84.60
61392;DHT22;47261;52.892;5.738;2022-07-29T04:43:07;15.10;84.60
61392;DHT22;47261;52.892;5.738;2022-07-29T04:45:33;15.10;84.60
61392;DHT22;47261;52.892;5.738;2022-07-29T04:47:58;15.10;84.60
61392;DHT22;47261;52.892;5.738;2022-07-29T04:50:24;15.10;84.60
61392;DHT22;47261;52.892;5.738;2022-07-29T04:52:50;15.10;84.60
61392;DHT22;47261;52.892;5.738;2022-07-29T04:55:15;15.10;84.60
61392;DHT22;47261;52.892;5.738;2022-07-29T04:57:41;15.10;84.60
61392;DHT22;47261;52.892;5.738;2022-07-29T05:00:07;15.10;84.60
61392;DHT22;47261;52.892;5.738;2022-07-29T05:02:33;15.10;84.60
61392;DHT22;47261;52.892;5.738;2022-07-29T05:04:58;15.20;84.70
61392;DHT22;47261;52.892;5.738;2022-07-29T05:07:24;15.20;84.70
61392;DHT22;47261;52.892;5.738;2022-07-29T05:09:49;15.20;84.60
61392;DHT22;47261;52.892;5.738;2022-07-29T05:12:15;15.20;84.60
61392;DHT22;47261;52.892;5.738;2022-07-29T05:14:40;15.30;84.70
61392;DHT22;47261;52.892;5.738;2022-07-29T05:17:06;15.30;84.70
61392;DHT22;47261;52.892;5.738;2022-07-29T05:19:32;15.40;84.70
61392;DHT22;47261;52.892;5.738;2022-07-29T05:21:57;15.40;84.60
61392;DHT22;47261;52.892;5.738;2022-07-29T05:24:23;15.50;84.60
61392;DHT22;47261;52.892;5.738;2022-07-29T05:26:48;15.60;84.60
61392;DHT22;47261;52.892;5.738;2022-07-29T05:29:14;15.70;84.50
61392;DHT22;47261;52.892;5.738;2022-07-29T05:31:39;15.80;84.50
61392;DHT22;47261;52.892;5.738;2022-07-29T05:34:04;15.90;84.40
61392;DHT22;47261;52.892;5.738;2022-07-29T05:36:30;16.00;84.40
61392;DHT22;47261;52.892;5.738;2022-07-29T05:38:55;16.20;84.10
61392;DHT22;47261;52.892;5.738;2022-07-29T05:41:21;16.70;83.30
61392;DHT22;47261;52.892;5.738;2022-07-29T05:43:47;17.20;82.30
61392;DHT22;47261;52.892;5.738;2022-07-29T05:46:12;17.60;81.20
61392;DHT22;47261;52.892;5.738;2022-07-29T05:48:39;18.00;80.20
61392;DHT22;47261;52.892;5.738;2022-07-29T05:51:04;18.40;79.40
61392;DHT22;47261;52.892;5.738;2022-07-29T05:53:30;18.80;78.50
61392;DHT22;47261;52.892;5.738;2022-07-29T05:55:55;19.10;77.90
61392;DHT22;47261;52.892;5.738;2022-07-29T05:58:21;19.40;77.40
61392;DHT22;47261;52.892;5.738;2022-07-29T06:00:47;19.40;77.00
61392;DHT22;47261;52.892;5.738;2022-07-29T06:03:12;19.20;77.20
61392;DHT22;47261;52.892;5.738;2022-07-29T06:05:38;19.00;77.70
61392;DHT22;47261;52.892;5.738;2022-07-29T06:08:04;18.80;78.20
61392;DHT22;47261;52.892;5.738;2022-07-29T06:10:33;18.50;79.00
61392;DHT22;47261;52.892;5.738;2022-07-29T06:12:59;18.40;79.70
61392;DHT22;47261;52.892;5.738;2022-07-29T06:15:24;18.30;80.10
61392;DHT22;47261;52.892;5.738;2022-07-29T06:17:50;18.30;80.30
61392;DHT22;47261;52.892;5.738;2022-07-29T06:20:16;18.30;80.40
61392;DHT22;47261;52.892;5.738;2022-07-29T06:22:41;18.30;80.50
61392;DHT22;47261;52.892;5.738;2022-07-29T06:25:07;18.30;80.70
61392;DHT22;47261;52.892;5.738;2022-07-29T06:27:33;18.30;80.50
61392;DHT22;47261;52.892;5.738;2022-07-29T06:29:58;18.30;80.50
61392;DHT22;47261;52.892;5.738;2022-07-29T06:32:24;18.30;80.30
61392;DHT22;47261;52.892;5.738;2022-07-29T06:34:50;18.40;80.20
61392;DHT22;47261;52.892;5.738;2022-07-29T06:37:15;18.40;80.20
61392;DHT22;47261;52.892;5.738;2022-07-29T06:39:41;18.40;80.20
61392;DHT22;47261;52.892;5.738;2022-07-29T06:42:07;18.50;80.20
61392;DHT22;47261;52.892;5.738;2022-07-29T06:44:32;18.50;80.00
61392;DHT22;47261;52.892;5.738;2022-07-29T06:47:01;18.40;79.80
61392;DHT22;47261;52.892;5.738;2022-07-29T06:49:27;18.40;79.80
61392;DHT22;47261;52.892;5.738;2022-07-29T06:51:53;18.30;79.80
61392;DHT22;47261;52.892;5.738;2022-07-29T06:54:19;18.20;79.80
61392;DHT22;47261;52.892;5.738;2022-07-29T06:56:44;18.10;79.80
61392;DHT22;47261;52.892;5.738;2022-07-29T06:59:11;18.00;79.90
61392;DHT22;47261;52.892;5.738;2022-07-29T07:01:38;18.00;80.20
61392;DHT22;47261;52.892;5.738;2022-07-29T07:04:03;18.00;80.20
61392;DHT22;47261;52.892;5.738;2022-07-29T07:06:29;18.00;80.30
61392;DHT22;47261;52.892;5.738;2022-07-29T07:08:55;17.90;80.40
61392;DHT22;47261;52.892;5.738;2022-07-29T07:11:20;17.90;80.50
61392;DHT22;47261;52.892;5.738;2022-07-29T07:13:46;17.90;80.50
61392;DHT22;47261;52.892;5.738;2022-07-29T07:16:11;17.90;80.50
61392;DHT22;47261;52.892;5.738;2022-07-29T07:18:37;17.90;80.60
61392;DHT22;47261;52.892;5.738;2022-07-29T07:21:02;17.90;80.60
61392;DHT22;47261;52.892;5.738;2022-07-29T07:23:30;17.90;80.60
61392;DHT22;47261;52.892;5.738;2022-07-29T07:25:55;17.90;80.60
61392;DHT22;47261;52.892;5.738;2022-07-29T07:28:21;18.00;80.60
61392;DHT22;47261;52.892;5.738;2022-07-29T07:30:46;18.00;80.40
61392;DHT22;47261;52.892;5.738;2022-07-29T07:33:12;18.10;80.40
61392;DHT22;47261;52.892;5.738;2022-07-29T07:35:38;18.10;80.30
61392;DHT22;47261;52.892;5.738;2022-07-29T07:38:03;18.20;80.20
61392;DHT22;47261;52.892;5.738;2022-07-29T07:40:31;18.20;80.10
61392;DHT22;47261;52.892;5.738;2022-07-29T07:42:56;18.20;79.80
61392;DHT22;47261;52.892;5.738;2022-07-29T07:45:22;18.30;79.80
61392;DHT22;47261;52.892;5.738;2022-07-29T07:47:47;18.30;79.80
61392;DHT22;47261;52.892;5.738;2022-07-29T07:50:13;18.30;79.70
61392;DHT22;47261;52.892;5.738;2022-07-29T07:52:48;18.40;79.70
61392;DHT22;47261;52.892;5.738;2022-07-29T07:55:14;18.40;79.60
61392;DHT22;47261;52.892;5.738;2022-07-29T07:57:40;18.40;79.60
61392;DHT22;47261;52.892;5.738;2022-07-29T08:00:05;18.40;79.50
61392;DHT22;47261;52.892;5.738;2022-07-29T08:02:31;18.30;79.40
61392;DHT22;47261;52.892;5.738;2022-07-29T08:04:57;18.30;79.40
61392;DHT22;47261;52.892;5.738;2022-07-29T08:07:22;18.20;79.40
61392;DHT22;47261;52.892;5.738;2022-07-29T08:09:48;18.20;79.60
61392;DHT22;47261;52.892;5.738;2022-07-29T08:12:13;18.10;79.40
61392;DHT22;47261;52.892;5.738;2022-07-29T08:14:38;18.10;79.40
61392;DHT22;47261;52.892;5.738;2022-07-29T08:17:04;18.00;79.40
61392;DHT22;47261;52.892;5.738;2022-07-29T08:19:30;18.00;79.40
61392;DHT22;47261;52.892;5.738;2022-07-29T08:21:55;18.00;79.60
61392;DHT22;47261;52.892;5.738;2022-07-29T08:24:21;17.90;79.50
61392;DHT22;47261;52.892;5.738;2022-07-29T08:27:05;17.90;79.60
61392;DHT22;47261;52.892;5.738;2022-07-29T08:29:31;17.90;79.60
61392;DHT22;47261;52.892;5.738;2022-07-29T08:31:56;17.90;79.60
61392;DHT22;47261;52.892;5.738;2022-07-29T08:34:22;17.90;79.60
61392;DHT22;47261;52.892;5.738;2022-07-29T08:36:47;17.90;79.60
61392;DHT22;47261;52.892;5.738;2022-07-29T08:39:13;17.90;79.50
61392;DHT22;47261;52.892;5.738;2022-07-29T08:41:38;17.90;79.40
61392;DHT22;47261;52.892;5.738;2022-07-29T08:44:04;18.00;79.40
61392;DHT22;47261;52.892;5.738;2022-07-29T08:46:30;18.00;79.40
61392;DHT22;47261;52.892;5.738;2022-07-29T08:48:55;18.10;79.40
61392;DHT22;47261;52.892;5.738;2022-07-29T08:51:21;18.10;79.20
61392;DHT22;47261;52.892;5.738;2022-07-29T08:53:48;18.20;79.20
61392;DHT22;47261;52.892;5.738;2022-07-29T08:56:14;18.20;79.10
61392;DHT22;47261;52.892;5.738;2022-07-29T08:58:41;18.30;79.10
61392;DHT22;47261;52.892;5.738;2022-07-29T09:01:07;18.30;79.10
61392;DHT22;47261;52.892;5.738;2022-07-29T09:03:34;18.40;79.70
61392;DHT22;47261;52.892;5.738;2022-07-29T09:06:01;18.50;79.20
61392;DHT22;47261;52.892;5.738;2022-07-29T09:08:27;18.60;79.00
61392;DHT22;47261;52.892;5.738;2022-07-29T09:10:54;18.80;79.00
61392;DHT22;47261;52.892;5.738;2022-07-29T09:13:21;19.00;78.90
61392;DHT22;47261;52.892;5.738;2022-07-29T09:15:46;19.20;78.40
61392;DHT22;47261;52.892;5.738;2022-07-29T09:18:12;19.40;78.10
61392;DHT22;47261;52.892;5.738;2022-07-29T09:20:51;19.60;77.90
61392;DHT22;47261;52.892;5.738;2022-07-29T09:23:36;19.80;77.50
61392;DHT22;47261;52.892;5.738;2022-07-29T09:26:05;19.90;77.30
61392;DHT22;47261;52.892;5.738;2022-07-29T09:28:30;20.10;77.10
61392;DHT22;47261;52.892;5.738;2022-07-29T09:30:57;20.20;76.90
61392;DHT22;47261;52.892;5.738;2022-07-29T09:33:23;20.30;76.50
61392;DHT22;47261;52.892;5.738;2022-07-29T09:36:05;20.40;76.30
61392;DHT22;47261;52.892;5.738;2022-07-29T09:38:32;20.40;76.00
61392;DHT22;47261;52.892;5.738;2022-07-29T09:40:58;20.50;75.90
61392;DHT22;47261;52.892;5.738;2022-07-29T09:43:24;20.50;75.70
61392;DHT22;47261;52.892;5.738;2022-07-29T09:45:49;20.40;76.20
61392;DHT22;47261;52.892;5.738;2022-07-29T09:50:41;20.20;75.60
61392;DHT22;47261;52.892;5.738;2022-07-29T09:53:09;20.10;75.70
61392;DHT22;47261;52.892;5.738;2022-07-29T09:58:17;20.10;75.90
61392;DHT22;47261;52.892;5.738;2022-07-29T10:00:42;20.10;75.90
61392;DHT22;47261;52.892;5.738;2022-07-29T10:03:08;20.10;75.80
61392;DHT22;47261;52.892;5.738;2022-07-29T10:05:34;20.10;75.60
61392;DHT22;47261;52.892;5.738;2022-07-29T10:07:59;20.10;76.30
61392;DHT22;47261;52.892;5.738;2022-07-29T10:10:29;20.10;75.80
61392;DHT22;47261;52.892;5.738;2022-07-29T10:12:55;20.30;75.90
61392;DHT22;47261;52.892;5.738;2022-07-29T10:15:22;20.40;76.40
61392;DHT22;47261;52.892;5.738;2022-07-29T10:17:49;20.50;75.70
61392;DHT22;47261;52.892;5.738;2022-07-29T10:20:15;20.60;75.50
61392;DHT22;47261;52.892;5.738;2022-07-29T10:22:40;20.80;75.30
61392;DHT22;47261;52.892;5.738;2022-07-29T10:25:07;21.00;75.10
61392;DHT22;47261;52.892;5.738;2022-07-29T10:27:32;21.10;74.80
61392;DHT22;47261;52.892;5.738;2022-07-29T10:29:58;21.30;74.70
61392;DHT22;47261;52.892;5.738;2022-07-29T10:40:42;22.70;73.70
61392;DHT22;47261;52.892;5.738;2022-07-29T10:43:29;23.20;73.00
61392;DHT22;47261;52.892;5.738;2022-07-29T10:45:59;23.60;72.10
61392;DHT22;47261;52.892;5.738;2022-07-29T10:48:25;23.70;71.70
61392;DHT22;47261;52.892;5.738;2022-07-29T10:53:22;23.80;71.20
61392;DHT22;47261;52.892;5.738;2022-07-29T10:55:48;23.80;71.00
61392;DHT22;47261;52.892;5.738;2022-07-29T11:00:41;23.60;70.90
61392;DHT22;47261;52.892;5.738;2022-07-29T11:03:06;23.40;70.90
61392;DHT22;47261;52.892;5.738;2022-07-29T11:08:17;23.10;71.60
61392;DHT22;47261;52.892;5.738;2022-07-29T11:10:44;22.90;71.70
61392;DHT22;47261;52.892;5.738;2022-07-29T11:13:09;22.90;71.90
61392;DHT22;47261;52.892;5.738;2022-07-29T11:15:54;22.80;72.10
61392;DHT22;47261;52.892;5.738;2022-07-29T11:18:19;22.80;72.20
61392;DHT22;47261;52.892;5.738;2022-07-29T11:20:46;22.80;72.30
61392;DHT22;47261;52.892;5.738;2022-07-29T11:25:44;23.10;72.00
61392;DHT22;47261;52.892;5.738;2022-07-29T11:28:16;23.30;71.80
61392;DHT22;47261;52.892;5.738;2022-07-29T11:30:49;23.50;71.50
61392;DHT22;47261;52.892;5.738;2022-07-29T11:33:31;23.70;70.90
61392;DHT22;47261;52.892;5.738;2022-07-29T11:36:10;23.70;70.40
61392;DHT22;47261;52.892;5.738;2022-07-29T11:38:36;23.70;70.60
61392;DHT22;47261;52.892;5.738;2022-07-29T11:43:47;23.90;70.80
61392;DHT22;47261;52.892;5.738;2022-07-29T11:46:13;24.40;70.40
61392;DHT22;47261;52.892;5.738;2022-07-29T11:48:42;24.60;69.70
61392;DHT22;47261;52.892;5.738;2022-07-29T11:51:11;24.90;69.40
61392;DHT22;47261;52.892;5.738;2022-07-29T11:53:37;25.10;69.20
61392;DHT22;47261;52.892;5.738;2022-07-29T11:56:02;25.30;68.90
61392;DHT22;47261;52.892;5.738;2022-07-29T11:58:29;25.30;67.80
61392;DHT22;47261;52.892;5.738;2022-07-29T12:00:55;25.20;67.50
61392;DHT22;47261;52.892;5.738;2022-07-29T12:03:25;25.10;67.10
61392;DHT22;47261;52.892;5.738;2022-07-29T12:05:51;25.10;66.60
61392;DHT22;47261;52.892;5.738;2022-07-29T12:08:18;25.10;66.50
61392;DHT22;47261;52.892;5.738;2022-07-29T12:10:45;25.20;66.80
61392;DHT22;47261;52.892;5.738;2022-07-29T12:13:11;25.10;66.60
61392;DHT22;47261;52.892;5.738;2022-07-29T12:15:37;25.10;66.80
61392;DHT22;47261;52.892;5.738;2022-07-29T12:18:09;25.20;66.40
61392;DHT22;47261;52.892;5.738;2022-07-29T12:20:35;25.20;66.00
61392;DHT22;47261;52.892;5.738;2022-07-29T12:23:04;25.10;65.70
61392;DHT22;47261;52.892;5.738;2022-07-29T12:25:32;25.10;66.40
61392;DHT22;47261;52.892;5.738;2022-07-29T12:28:02;25.10;65.80
61392;DHT22;47261;52.892;5.738;2022-07-29T12:30:41;25.10;66.00
61392;DHT22;47261;52.892;5.738;2022-07-29T12:33:11;25.10;65.90
61392;DHT22;47261;52.892;5.738;2022-07-29T12:35:37;25.20;65.60
61392;DHT22;47261;52.892;5.738;2022-07-29T12:38:03;25.30;65.10
61392;DHT22;47261;52.892;5.738;2022-07-29T12:40:29;25.50;64.70
61392;DHT22;47261;52.892;5.738;2022-07-29T12:45:53;25.80;64.30
61392;DHT22;47261;52.892;5.738;2022-07-29T12:48:38;25.80;64.00
61392;DHT22;47261;52.892;5.738;2022-07-29T12:51:04;25.70;63.70
61392;DHT22;47261;52.892;5.738;2022-07-29T12:53:30;25.70;63.80
61392;DHT22;47261;52.892;5.738;2022-07-29T12:55:56;25.70;63.70
61392;DHT22;47261;52.892;5.738;2022-07-29T12:58:28;25.70;63.70
61392;DHT22;47261;52.892;5.738;2022-07-29T13:01:27;25.60;63.60
61392;DHT22;47261;52.892;5.738;2022-07-29T13:06:31;25.70;63.40
61392;DHT22;47261;52.892;5.738;2022-07-29T13:11:32;25.60;63.50
61392;DHT22;47261;52.892;5.738;2022-07-29T13:13:58;25.60;63.30
61392;DHT22;47261;52.892;5.738;2022-07-29T13:16:23;25.60;63.20
61392;DHT22;47261;52.892;5.738;2022-07-29T13:19:02;25.70;63.20
61392;DHT22;47261;52.892;5.738;2022-07-29T13:21:27;25.80;63.20
61392;DHT22;47261;52.892;5.738;2022-07-29T13:23:53;25.80;63.30
61392;DHT22;47261;52.892;5.738;2022-07-29T13:26:18;25.80;63.30
61392;DHT22;47261;52.892;5.738;2022-07-29T13:28:44;25.80;63.30
61392;DHT22;47261;52.892;5.738;2022-07-29T13:31:10;25.80;63.00
61392;DHT22;47261;52.892;5.738;2022-07-29T13:33:36;25.90;63.10
61392;DHT22;47261;52.892;5.738;2022-07-29T13:36:01;26.00;63.10
61392;DHT22;47261;52.892;5.738;2022-07-29T13:38:27;26.00;63.20
61392;DHT22;47261;52.892;5.738;2022-07-29T13:40:52;26.00;63.20
61392;DHT22;47261;52.892;5.738;2022-07-29T13:43:18;25.90;64.00
61392;DHT22;47261;52.892;5.738;2022-07-29T13:45:43;25.70;63.50
61392;DHT22;47261;52.892;5.738;2022-07-29T13:48:09;25.70;63.80
61392;DHT22;47261;52.892;5.738;2022-07-29T13:50:34;25.60;63.70
61392;DHT22;47261;52.892;5.738;2022-07-29T13:53:03;25.50;63.50
61392;DHT22;47261;52.892;5.738;2022-07-29T13:55:29;25.40;63.50
61392;DHT22;47261;52.892;5.738;2022-07-29T13:57:54;25.30;63.70
61392;DHT22;47261;52.892;5.738;2022-07-29T14:00:20;25.30;63.80
61392;DHT22;47261;52.892;5.738;2022-07-29T14:02:45;25.20;63.80
61392;DHT22;47261;52.892;5.738;2022-07-29T14:05:11;25.20;63.70
61392;DHT22;47261;52.892;5.738;2022-07-29T14:07:37;25.20;63.60
61392;DHT22;47261;52.892;5.738;2022-07-29T14:10:04;25.20;63.70
61392;DHT22;47261;52.892;5.738;2022-07-29T14:12:30;25.40;63.60
61392;DHT22;47261;52.892;5.738;2022-07-29T14:14:55;25.50;63.80
61392;DHT22;47261;52.892;5.738;2022-07-29T14:17:20;25.70;63.60
61392;DHT22;47261;52.892;5.738;2022-07-29T14:19:46;25.70;63.40
61392;DHT22;47261;52.892;5.738;2022-07-29T14:22:12;25.70;63.40
61392;DHT22;47261;52.892;5.738;2022-07-29T14:24:37;25.80;63.40
61392;DHT22;47261;52.892;5.738;2022-07-29T14:27:04;26.00;63.10
61392;DHT22;47261;52.892;5.738;2022-07-29T14:29:29;26.20;62.70
61392;DHT22;47261;52.892;5.738;2022-07-29T14:31:55;26.30;62.40
61392;DHT22;47261;52.892;5.738;2022-07-29T14:34:20;26.20;62.30
61392;DHT22;47261;52.892;5.738;2022-07-29T14:36:46;26.20;62.30
61392;DHT22;47261;52.892;5.738;2022-07-29T14:39:14;26.10;61.70
61392;DHT22;47261;52.892;5.738;2022-07-29T14:41:41;26.10;61.50
61392;DHT22;47261;52.892;5.738;2022-07-29T14:44:06;26.20;61.50
61392;DHT22;47261;52.892;5.738;2022-07-29T14:46:32;26.20;61.10
61392;DHT22;47261;52.892;5.738;2022-07-29T14:48:57;26.40;61.20
61392;DHT22;47261;52.892;5.738;2022-07-29T14:51:23;26.50;61.00
61392;DHT22;47261;52.892;5.738;2022-07-29T14:53:48;26.50;60.60
61392;DHT22;47261;52.892;5.738;2022-07-29T14:56:14;26.50;60.50
61392;DHT22;47261;52.892;5.738;2022-07-29T14:58:39;26.50;60.20
61392;DHT22;47261;52.892;5.738;2022-07-29T15:01:05;26.40;60.20
61392;DHT22;47261;52.892;5.738;2022-07-29T15:03:31;26.30;60.40
61392;DHT22;47261;52.892;5.738;2022-07-29T15:05:56;26.20;60.40
61392;DHT22;47261;52.892;5.738;2022-07-29T15:08:22;26.10;60.50
61392;DHT22;47261;52.892;5.738;2022-07-29T15:10:48;26.00;60.20
61392;DHT22;47261;52.892;5.738;2022-07-29T15:13:14;26.00;60.00
61392;DHT22;47261;52.892;5.738;2022-07-29T15:15:39;25.90;59.90
61392;DHT22;47261;52.892;5.738;2022-07-29T15:18:06;26.00;60.00
61392;DHT22;47261;52.892;5.738;2022-07-29T15:20:32;25.90;59.60
61392;DHT22;47261;52.892;5.738;2022-07-29T15:22:57;25.80;59.80
61392;DHT22;47261;52.892;5.738;2022-07-29T15:25:23;25.80;59.70
61392;DHT22;47261;52.892;5.738;2022-07-29T15:27:48;25.70;59.80
61392;DHT22;47261;52.892;5.738;2022-07-29T15:30:14;25.70;59.90
61392;DHT22;47261;52.892;5.738;2022-07-29T15:32:42;25.70;60.00
61392;DHT22;47261;52.892;5.738;2022-07-29T15:35:08;25.70;60.20
61392;DHT22;47261;52.892;5.738;2022-07-29T15:37:35;25.70;60.50
61392;DHT22;47261;52.892;5.738;2022-07-29T15:40:01;25.70;60.30
61392;DHT22;47261;52.892;5.738;2022-07-29T15:42:26;25.70;60.30
61392;DHT22;47261;52.892;5.738;2022-07-29T15:44:52;25.70;60.40
61392;DHT22;47261;52.892;5.738;2022-07-29T15:47:17;25.80;60.40
61392;DHT22;47261;52.892;5.738;2022-07-29T15:49:43;25.70;60.30
61392;DHT22;47261;52.892;5.738;2022-07-29T15:52:09;25.70;60.20
61392;DHT22;47261;52.892;5.738;2022-07-29T15:54:36;25.70;60.30
61392;DHT22;47261;52.892;5.738;2022-07-29T15:57:02;25.70;60.50
61392;DHT22;47261;52.892;5.738;2022-07-29T15:59:28;25.70;60.70
61392;DHT22;47261;52.892;5.738;2022-07-29T16:01:53;25.60;61.00
61392;DHT22;47261;52.892;5.738;2022-07-29T16:04:19;25.60;61.30
61392;DHT22;47261;52.892;5.738;2022-07-29T16:06:45;25.60;61.40
61392;DHT22;47261;52.892;5.738;2022-07-29T16:09:11;25.60;61.40
61392;DHT22;47261;52.892;5.738;2022-07-29T16:11:36;25.60;61.50